Time;durP1;ratioP1;P1;durP2;ratioP2;P2;SDS_P1;SDS_P2;PMS_P1;PMS_P2;Temp;Humidity;BMP_temperature;BMP_pressure;BME280_temperature;BME280_humidity;BME280_pressure;Samples;Min_cycle;Max_cycle;Signal;HPM_P1;HPM_P2
2021/09/13 00:00:06;;;;;;;12.50;6.57;;;;;;;;;;5097100;28;20036;-83
2021/09/13 00:02:35;;;;;;;12.00;6.82;;;;;;;;;;5100561;28;20027;-83
2021/09/13 00:05:01;;;;;;;14.23;6.78;;;;;;;;;;5100521;28;20106;-83
2021/09/13 00:07:27;;;;;;;11.70;7.03;;;;;;;;;;5099291;28;20044;-83
2021/09/13 00:09:53;;;;;;;13.60;7.07;;;;;;;;;;5099457;28;20070;-83
2021/09/13 00:12:19;;;;;;;12.55;7.05;;;;;;;;;;5100330;28;20119;-82
2021/09/13 00:14:45;;;;;;;11.98;6.97;;;;;;;;;;5100422;28;20055;-84
2021/09/13 00:17:12;;;;;;;12.43;6.97;;;;;;;;;;5100310;28;20027;-83
2021/09/13 00:19:38;;;;;;;16.58;7.40;;;;;;;;;;5100251;28;20317;-83
2021/09/13 00:22:05;;;;;;;13.80;7.53;;;;;;;;;;5100514;28;20017;-83
2021/09/13 00:24:31;;;;;;;13.75;7.15;;;;;;;;;;5099246;28;20022;-83
2021/09/13 00:26:57;;;;;;;14.38;7.30;;;;;;;;;;5099192;28;20024;-83
2021/09/13 00:29:23;;;;;;;13.65;7.18;;;;;;;;;;5099149;28;20111;-83
2021/09/13 00:31:49;;;;;;;11.20;6.63;;;;;;;;;;5100134;28;20020;-83
2021/09/13 00:34:15;;;;;;;16.48;7.13;;;;;;;;;;5099071;28;20082;-82
2021/09/13 00:36:41;;;;;;;17.88;7.68;;;;;;;;;;5100063;28;20398;-83
2021/09/13 00:39:07;;;;;;;17.55;7.82;;;;;;;;;;5098818;28;20078;-83
2021/09/13 00:41:34;;;;;;;15.55;6.95;;;;;;;;;;5099137;28;20077;-83
2021/09/13 00:44:00;;;;;;;16.27;7.28;;;;;;;;;;5100002;28;20066;-84
2021/09/13 00:46:26;;;;;;;18.17;7.47;;;;;;;;;;5099121;28;20406;-84
2021/09/13 00:48:52;;;;;;;17.50;7.80;;;;;;;;;;5098987;28;20036;-83
2021/09/13 00:51:18;;;;;;;14.13;8.40;;;;;;;;;;5099706;28;20028;-82
2021/09/13 00:53:44;;;;;;;17.23;8.15;;;;;;;;;;5098843;28;20038;-82
2021/09/13 00:56:10;;;;;;;13.38;7.70;;;;;;;;;;5099621;28;20337;-83
2021/09/13 00:58:37;;;;;;;15.43;7.60;;;;;;;;;;5099433;28;20024;-83
2021/09/13 01:01:04;;;;;;;12.90;8.02;;;;;;;;;;5098559;28;20057;-83
2021/09/13 01:03:31;;;;;;;12.68;6.82;;;;;;;;;;5098018;28;20437;-83
2021/09/13 01:05:57;;;;;;;16.70;7.13;;;;;;;;;;5098351;28;20139;-83
2021/09/13 01:08:25;;;;;;;15.65;6.88;;;;;;;;;;5098353;28;20044;-83
2021/09/13 01:10:52;;;;;;;12.40;7.00;;;;;;;;;;5098991;28;20035;-83
2021/09/13 01:13:18;;;;;;;18.67;7.43;;;;;;;;;;5099048;28;20035;-82
2021/09/13 01:15:44;;;;;;;16.48;7.65;;;;;;;;;;5098276;28;20030;-83
2021/09/13 01:18:10;;;;;;;20.75;7.35;;;;;;;;;;5098946;28;20027;-83
2021/09/13 01:20:37;;;;;;;17.70;6.95;;;;;;;;;;5099338;28;20024;-83
2021/09/13 01:23:07;;;;;;;16.23;7.47;;;;;;;;;;5099128;28;20020;-83
2021/09/13 01:25:35;;;;;;;10.90;7.80;;;;;;;;;;5098195;28;20028;-84
2021/09/13 01:28:01;;;;;;;17.52;7.93;;;;;;;;;;5099078;28;20437;-84
2021/09/13 01:30:27;;;;;;;15.13;9.15;;;;;;;;;;5099015;28;20041;-83
2021/09/13 01:32:53;;;;;;;17.45;7.82;;;;;;;;;;5098845;28;20417;-83
2021/09/13 01:35:19;;;;;;;16.30;7.88;;;;;;;;;;5098784;28;20035;-83
2021/09/13 01:37:45;;;;;;;12.10;8.05;;;;;;;;;;5098926;28;20028;-83
2021/09/13 01:40:11;;;;;;;14.63;9.13;;;;;;;;;;5098766;28;20028;-83
2021/09/13 01:42:37;;;;;;;14.80;8.30;;;;;;;;;;5098580;28;20404;-83
2021/09/13 01:45:04;;;;;;;17.55;8.35;;;;;;;;;;5098643;28;20020;-83
2021/09/13 01:47:31;;;;;;;13.48;8.13;;;;;;;;;;5098574;28;20099;-83
2021/09/13 01:49:57;;;;;;;16.92;8.82;;;;;;;;;;5098552;28;20024;-84
2021/09/13 01:52:23;;;;;;;14.88;8.52;;;;;;;;;;5098492;28;20406;-84
2021/09/13 01:54:49;;;;;;;19.40;8.18;;;;;;;;;;5097674;28;20050;-84
2021/09/13 01:57:15;;;;;;;17.20;8.57;;;;;;;;;;5097346;28;20055;-83
2021/09/13 01:59:41;;;;;;;16.27;8.95;;;;;;;;;;5098509;28;20121;-84
2021/09/13 02:02:07;;;;;;;14.77;8.70;;;;;;;;;;5098394;28;20024;-84
2021/09/13 02:04:33;;;;;;;17.17;8.55;;;;;;;;;;5097567;28;20063;-84
2021/09/13 02:06:59;;;;;;;14.18;8.45;;;;;;;;;;5098246;28;20052;-84
2021/09/13 02:09:25;;;;;;;15.85;8.82;;;;;;;;;;5098267;28;20062;-84
2021/09/13 02:11:51;;;;;;;20.45;8.25;;;;;;;;;;5098057;28;20031;-83
2021/09/13 02:14:17;;;;;;;12.45;8.32;;;;;;;;;;5097110;28;20154;-83
2021/09/13 02:16:43;;;;;;;14.27;8.95;;;;;;;;;;5097345;28;20032;-84
2021/09/13 02:19:09;;;;;;;17.70;8.73;;;;;;;;;;5096719;28;20056;-84
2021/09/13 02:21:35;;;;;;;16.95;8.43;;;;;;;;;;5098041;28;20028;-82
2021/09/13 02:24:02;;;;;;;15.30;8.80;;;;;;;;;;5097540;28;20016;-83
2021/09/13 02:26:28;;;;;;;18.23;9.10;;;;;;;;;;5098033;28;20039;-82
2021/09/13 02:28:54;;;;;;;19.75;8.75;;;;;;;;;;5096704;28;20066;-82
2021/09/13 02:31:20;;;;;;;13.77;9.07;;;;;;;;;;5097777;28;20067;-83
2021/09/13 02:33:46;;;;;;;13.75;8.05;;;;;;;;;;5097687;28;20396;-83
2021/09/13 02:36:12;;;;;;;19.70;8.57;;;;;;;;;;5097956;28;20291;-83
2021/09/13 02:38:38;;;;;;;20.92;9.57;;;;;;;;;;5097513;28;20060;-83
2021/09/13 02:41:04;;;;;;;16.63;9.25;;;;;;;;;;5097911;28;20103;-83
2021/09/13 02:43:30;;;;;;;28.02;9.50;;;;;;;;;;5097801;28;20057;-83
2021/09/13 02:45:56;;;;;;;17.98;9.73;;;;;;;;;;5097703;28;20016;-83
2021/09/13 02:48:22;;;;;;;24.45;10.15;;;;;;;;;;5097492;28;20031;-84
2021/09/13 02:50:48;;;;;;;19.88;9.88;;;;;;;;;;5097555;28;20478;-84
2021/09/13 02:53:14;;;;;;;18.92;10.30;;;;;;;;;;5097605;28;20410;-83
2021/09/13 02:55:40;;;;;;;16.23;8.95;;;;;;;;;;5097507;28;20417;-83
2021/09/13 02:58:06;;;;;;;21.70;10.25;;;;;;;;;;5097088;28;20119;-84
2021/09/13 03:00:32;;;;;;;17.20;10.50;;;;;;;;;;5097550;28;20028;-83
2021/09/13 03:02:59;;;;;;;19.67;10.93;;;;;;;;;;5097307;28;20340;-83
2021/09/13 03:05:25;;;;;;;16.92;11.38;;;;;;;;;;5097383;28;20024;-82
2021/09/13 03:07:51;;;;;;;21.20;11.98;;;;;;;;;;5096915;28;20049;-83
2021/09/13 03:10:17;;;;;;;19.77;12.20;;;;;;;;;;5097398;28;20480;-83
2021/09/13 03:12:43;;;;;;;21.40;12.15;;;;;;;;;;5097194;28;20116;-83
2021/09/13 03:15:10;;;;;;;24.50;12.95;;;;;;;;;;5096980;28;20039;-87
2021/09/13 03:17:36;;;;;;;22.65;12.23;;;;;;;;;;5096524;28;20358;-87
2021/09/13 03:20:03;;;;;;;27.40;13.15;;;;;;;;;;5097563;28;20051;-86
2021/09/13 03:22:30;;;;;;;21.95;12.07;;;;;;;;;;5098086;28;20020;-88
2021/09/13 03:24:56;;;;;;;21.25;12.70;;;;;;;;;;5097681;28;20020;-87
2021/09/13 03:27:22;;;;;;;18.40;11.80;;;;;;;;;;5097039;28;20039;-87
2021/09/13 03:29:48;;;;;;;21.20;12.13;;;;;;;;;;5097627;28;20035;-87
2021/09/13 03:32:14;;;;;;;24.92;12.63;;;;;;;;;;5097728;28;20024;-87
2021/09/13 03:34:40;;;;;;;20.70;11.48;;;;;;;;;;5098688;28;20123;-87
2021/09/13 03:37:06;;;;;;;22.25;12.75;;;;;;;;;;5101652;28;20028;-86
2021/09/13 03:39:32;;;;;;;22.40;13.02;;;;;;;;;;5101430;28;20032;-86
2021/09/13 03:41:59;;;;;;;21.45;12.45;;;;;;;;;;5101534;28;20135;-86
2021/09/13 03:44:25;;;;;;;17.30;12.25;;;;;;;;;;5101416;28;20058;-86
2021/09/13 03:46:51;;;;;;;19.40;12.65;;;;;;;;;;5100618;28;20194;-86
2021/09/13 03:49:19;;;;;;;17.45;12.50;;;;;;;;;;5101332;28;20054;-86
2021/09/13 03:51:45;;;;;;;19.73;13.13;;;;;;;;;;5101271;28;20034;-86
2021/09/13 03:54:11;;;;;;;20.50;12.38;;;;;;;;;;5101108;28;20534;-86
2021/09/13 03:56:37;;;;;;;20.92;12.70;;;;;;;;;;5101208;28;20031;-86
2021/09/13 03:59:03;;;;;;;27.95;13.48;;;;;;;;;;5100916;28;20366;-86
2021/09/13 04:01:30;;;;;;;21.30;11.82;;;;;;;;;;5099998;28;20325;-86
2021/09/13 04:03:59;;;;;;;22.50;12.85;;;;;;;;;;5100277;28;20039;-86
2021/09/13 04:06:29;;;;;;;20.80;12.75;;;;;;;;;;5100649;28;20055;-86
2021/09/13 04:14:06;;;;;;;21.35;15.02;;;;;;;;;;5101046;28;20406;-86
2021/09/13 04:16:32;;;;;;;25.67;16.75;;;;;;;;;;5100755;28;20024;-86
2021/09/13 04:18:58;;;;;;;26.05;17.52;;;;;;;;;;5099636;28;20329;-86
2021/09/13 04:21:24;;;;;;;30.08;17.02;;;;;;;;;;5100723;28;20280;-86
2021/09/13 04:23:50;;;;;;;23.08;16.40;;;;;;;;;;5100690;28;20416;-85
2021/09/13 04:26:16;;;;;;;29.85;15.05;;;;;;;;;;5100061;28;20479;-85
2021/09/13 04:28:42;;;;;;;26.10;15.32;;;;;;;;;;5100383;28;20051;-86
2021/09/13 04:31:08;;;;;;;26.95;15.88;;;;;;;;;;5099441;28;20024;-86
2021/09/13 04:33:34;;;;;;;31.08;14.77;;;;;;;;;;5099462;28;20122;-85
2021/09/13 04:36:00;;;;;;;37.60;15.25;;;;;;;;;;5100553;28;20032;-85
2021/09/13 04:38:26;;;;;;;27.98;14.43;;;;;;;;;;5099251;28;20353;-87
2021/09/13 04:40:52;;;;;;;26.73;14.20;;;;;;;;;;5094765;28;20402;-86
2021/09/13 04:43:18;;;;;;;33.95;14.93;;;;;;;;;;5100605;28;20043;-87
2021/09/13 04:45:44;;;;;;;37.17;15.50;;;;;;;;;;5099104;28;20027;-87
2021/09/13 04:48:10;;;;;;;30.95;15.23;;;;;;;;;;5098962;28;20028;-88
2021/09/13 04:50:36;;;;;;;22.48;14.32;;;;;;;;;;5100303;28;20058;-85
2021/09/13 04:53:02;;;;;;;36.42;14.00;;;;;;;;;;5100211;28;20020;-86
2021/09/13 04:55:28;;;;;;;32.90;14.55;;;;;;;;;;5100098;28;20031;-86
2021/09/13 04:57:54;;;;;;;32.42;14.38;;;;;;;;;;5099737;28;20024;-85
2021/09/13 05:00:21;;;;;;;35.63;15.60;;;;;;;;;;5099658;28;20462;-86
2021/09/13 05:02:48;;;;;;;46.45;18.85;;;;;;;;;;5099701;28;20433;-85
2021/09/13 05:05:14;;;;;;;36.00;19.10;;;;;;;;;;5098858;28;20028;-87
2021/09/13 05:07:40;;;;;;;30.92;16.98;;;;;;;;;;5099428;28;20048;-86
2021/09/13 05:10:06;;;;;;;33.13;17.55;;;;;;;;;;5099984;28;20028;-87
2021/09/13 05:12:32;;;;;;;30.33;16.80;;;;;;;;;;5098684;28;20122;-87
2021/09/13 05:14:58;;;;;;;27.20;15.93;;;;;;;;;;5098679;28;20035;-85
2021/09/13 05:17:25;;;;;;;25.25;15.13;;;;;;;;;;5099460;28;20039;-85
2021/09/13 05:19:51;;;;;;;24.05;14.60;;;;;;;;;;5098449;28;20020;-84
2021/09/13 05:22:17;;;;;;;20.45;12.77;;;;;;;;;;5098373;28;20028;-85
2021/09/13 05:24:43;;;;;;;19.30;11.75;;;;;;;;;;5099319;28;20020;-85
2021/09/13 05:27:09;;;;;;;22.00;11.50;;;;;;;;;;5098323;28;20408;-85
2021/09/13 05:29:36;;;;;;;21.05;12.25;;;;;;;;;;5099423;28;20016;-86
2021/09/13 05:32:02;;;;;;;21.27;12.43;;;;;;;;;;5099285;28;20028;-86
2021/09/13 05:34:28;;;;;;;19.90;11.73;;;;;;;;;;5098689;28;20037;-86
2021/09/13 05:36:55;;;;;;;16.40;11.82;;;;;;;;;;5098466;28;20103;-86
2021/09/13 05:39:21;;;;;;;15.23;10.80;;;;;;;;;;5099072;28;20055;-86
2021/09/13 05:41:47;;;;;;;17.38;11.10;;;;;;;;;;5099332;28;20020;-86
2021/09/13 05:44:13;;;;;;;20.38;12.25;;;;;;;;;;5098127;28;20102;-85
2021/09/13 05:46:39;;;;;;;22.05;13.00;;;;;;;;;;5096841;28;20031;-86
2021/09/13 05:49:10;;;;;;;21.40;13.45;;;;;;;;;;5078720;28;20062;-86
2021/09/13 05:51:39;;;;;;;18.63;12.40;;;;;;;;;;5078726;28;20028;-86
2021/09/13 05:54:06;;;;;;;21.00;12.60;;;;;;;;;;5078973;28;20371;-87
2021/09/13 05:56:32;;;;;;;22.83;12.65;;;;;;;;;;5079714;28;20028;-85
2021/09/13 05:58:58;;;;;;;22.88;12.90;;;;;;;;;;5077447;28;20024;-87
2021/09/13 06:01:24;;;;;;;23.15;13.23;;;;;;;;;;5080727;28;20028;-86
2021/09/13 06:03:50;;;;;;;20.65;11.57;;;;;;;;;;5098763;28;20065;-86
2021/09/13 06:06:17;;;;;;;15.57;12.55;;;;;;;;;;5098493;28;20072;-85
2021/09/13 06:08:43;;;;;;;18.42;12.10;;;;;;;;;;5097679;28;20098;-86
2021/09/13 06:11:09;;;;;;;23.75;13.13;;;;;;;;;;5098456;28;20016;-86
2021/09/13 06:13:35;;;;;;;20.92;12.23;;;;;;;;;;5098697;28;20103;-85
2021/09/13 06:16:01;;;;;;;17.80;12.77;;;;;;;;;;5097859;28;20039;-86
2021/09/13 06:18:27;;;;;;;17.95;11.50;;;;;;;;;;5098251;28;20024;-87
2021/09/13 06:20:53;;;;;;;24.35;11.82;;;;;;;;;;5098570;28;20027;-86
2021/09/13 06:23:19;;;;;;;21.17;12.18;;;;;;;;;;5098646;28;20025;-86
2021/09/13 06:25:45;;;;;;;19.95;13.50;;;;;;;;;;5098685;28;20054;-86
2021/09/13 06:28:11;;;;;;;27.17;14.40;;;;;;;;;;5098567;28;20090;-87
2021/09/13 06:30:37;;;;;;;25.90;17.92;;;;;;;;;;5097957;28;20024;-86
2021/09/13 06:33:04;;;;;;;24.95;16.40;;;;;;;;;;5098298;28;20032;-86
2021/09/13 06:35:30;;;;;;;27.65;17.15;;;;;;;;;;5097821;28;20063;-85
2021/09/13 06:37:56;;;;;;;24.23;14.45;;;;;;;;;;5098493;28;20028;-85
2021/09/13 06:40:22;;;;;;;22.77;15.00;;;;;;;;;;5097450;28;20181;-85
2021/09/13 06:42:48;;;;;;;20.02;13.68;;;;;;;;;;5097839;28;20077;-87
2021/09/13 06:45:22;;;;;;;25.98;14.95;;;;;;;;;;5098095;28;20318;-85
2021/09/13 06:47:48;;;;;;;27.30;15.35;;;;;;;;;;5085355;28;20060;-84
2021/09/13 06:50:20;;;;;;;24.30;13.73;;;;;;;;;;5093845;28;20169;-83
2021/09/13 06:52:47;;;;;;;29.00;16.73;;;;;;;;;;5092094;28;20287;-84
2021/09/13 06:55:13;;;;;;;35.55;23.30;;;;;;;;;;5090860;28;20405;-84
2021/09/13 06:57:40;;;;;;;20.27;11.95;;;;;;;;;;5094124;28;20119;-85
2021/09/13 07:00:07;;;;;;;24.15;14.75;;;;;;;;;;5096851;28;20314;-84
2021/09/13 07:02:33;;;;;;;33.42;19.27;;;;;;;;;;5096295;28;20024;-84
2021/09/13 07:05:00;;;;;;;20.85;12.07;;;;;;;;;;5097295;28;20020;-81
2021/09/13 07:07:26;;;;;;;17.83;11.00;;;;;;;;;;5097202;28;20395;-81
2021/09/13 07:09:52;;;;;;;22.83;11.27;;;;;;;;;;5097065;28;20027;-81
2021/09/13 07:12:19;;;;;;;14.52;9.50;;;;;;;;;;5097292;28;20099;-83
2021/09/13 07:14:46;;;;;;;15.32;10.18;;;;;;;;;;5097340;28;20347;-83
2021/09/13 07:17:12;;;;;;;14.77;10.63;;;;;;;;;;5096107;28;20440;-82
2021/09/13 07:19:39;;;;;;;13.70;9.27;;;;;;;;;;5097240;28;20108;-82
2021/09/13 07:22:05;;;;;;;19.02;10.10;;;;;;;;;;5096311;28;20028;-81
2021/09/13 07:24:31;;;;;;;13.52;7.85;;;;;;;;;;5097269;28;20318;-82
2021/09/13 07:26:57;;;;;;;16.10;7.45;;;;;;;;;;5097140;28;20398;-83
2021/09/13 07:29:23;;;;;;;12.18;7.93;;;;;;;;;;5096099;28;20423;-82
2021/09/13 07:31:49;;;;;;;15.63;7.88;;;;;;;;;;5096232;28;20479;-82
2021/09/13 07:34:15;;;;;;;11.05;7.72;;;;;;;;;;5097039;28;20291;-81
2021/09/13 07:36:41;;;;;;;12.93;7.43;;;;;;;;;;5096989;28;20032;-81
2021/09/13 07:39:07;;;;;;;14.50;7.47;;;;;;;;;;5095836;28;20604;-81
2021/09/13 07:41:33;;;;;;;19.63;7.70;;;;;;;;;;5096090;28;20040;-81
2021/09/13 07:43:59;;;;;;;11.40;7.88;;;;;;;;;;5093256;28;20099;-81
2021/09/13 07:46:25;;;;;;;13.13;7.95;;;;;;;;;;5083760;28;20073;-81
2021/09/13 07:48:51;;;;;;;13.07;7.88;;;;;;;;;;5095730;28;20024;-81
2021/09/13 07:51:18;;;;;;;13.15;7.97;;;;;;;;;;5096847;28;20058;-81
2021/09/13 07:53:45;;;;;;;13.32;7.30;;;;;;;;;;5096735;28;20021;-81
2021/09/13 07:56:11;;;;;;;13.73;7.85;;;;;;;;;;5075454;28;20037;-81
2021/09/13 07:58:38;;;;;;;11.20;6.85;;;;;;;;;;5075283;28;20190;-80
2021/09/13 08:01:04;;;;;;;10.10;7.13;;;;;;;;;;5075406;28;20066;-81
2021/09/13 08:03:30;;;;;;;13.23;7.18;;;;;;;;;;5076416;28;20047;-81
2021/09/13 08:05:56;;;;;;;23.63;7.00;;;;;;;;;;5076727;28;20047;-81
2021/09/13 08:08:22;;;;;;;13.02;6.38;;;;;;;;;;5085021;28;20078;-82
2021/09/13 08:10:48;;;;;;;11.48;6.05;;;;;;;;;;5076410;28;20112;-81
2021/09/13 08:13:14;;;;;;;9.95;5.53;;;;;;;;;;5076256;28;20036;-81
2021/09/13 08:15:40;;;;;;;15.85;6.00;;;;;;;;;;5076346;28;20410;-81
2021/09/13 08:18:06;;;;;;;11.88;5.53;;;;;;;;;;5076300;28;20029;-81
2021/09/13 08:20:32;;;;;;;12.85;6.22;;;;;;;;;;5076542;28;20028;-81
2021/09/13 08:22:58;;;;;;;12.75;5.72;;;;;;;;;;5080007;28;20083;-80
2021/09/13 08:25:24;;;;;;;9.50;5.47;;;;;;;;;;5079812;28;20021;-81
2021/09/13 08:27:50;;;;;;;11.85;5.63;;;;;;;;;;5079788;28;20055;-80
2021/09/13 08:30:17;;;;;;;13.88;5.40;;;;;;;;;;5079772;28;20406;-81
2021/09/13 08:32:43;;;;;;;9.32;5.50;;;;;;;;;;5079780;28;20025;-83
2021/09/13 08:35:09;;;;;;;13.95;6.03;;;;;;;;;;5079749;28;20058;-81
2021/09/13 08:37:35;;;;;;;13.25;5.47;;;;;;;;;;5079432;28;20318;-82
2021/09/13 08:40:01;;;;;;;15.10;5.05;;;;;;;;;;5078149;28;20322;-81
2021/09/13 08:42:28;;;;;;;6.35;4.57;;;;;;;;;;5085853;28;20027;-81
2021/09/13 08:44:59;;;;;;;15.38;5.10;;;;;;;;;;5098922;28;20326;-81
2021/09/13 08:47:36;;;;;;;9.20;4.63;;;;;;;;;;5098873;28;20032;-81
2021/09/13 08:50:12;;;;;;;9.75;5.18;;;;;;;;;;5098872;28;20061;-81
2021/09/13 08:52:38;;;;;;;12.15;4.28;;;;;;;;;;5098345;28;20421;-82
2021/09/13 08:55:04;;;;;;;7.93;4.63;;;;;;;;;;5097417;28;20020;-82
2021/09/13 08:57:32;;;;;;;9.75;4.38;;;;;;;;;;5098959;28;20449;-82
2021/09/13 09:00:01;;;;;;;10.57;5.50;;;;;;;;;;5099505;28;20034;-82
2021/09/13 09:02:27;;;;;;;10.07;4.63;;;;;;;;;;5099109;28;20091;-82
2021/09/13 09:04:55;;;;;;;10.13;4.63;;;;;;;;;;5099494;28;20020;-82
2021/09/13 09:07:23;;;;;;;6.25;3.88;;;;;;;;;;5099272;28;20048;-82
2021/09/13 09:10:08;;;;;;;6.78;4.28;;;;;;;;;;5099244;28;20465;-82
2021/09/13 09:12:35;;;;;;;10.77;5.32;;;;;;;;;;5099284;28;20031;-81
2021/09/13 09:15:07;;;;;;;8.00;3.90;;;;;;;;;;5098348;28;20039;-82
2021/09/13 09:17:33;;;;;;;11.98;5.18;;;;;;;;;;5098020;28;20020;-83
2021/09/13 09:20:07;;;;;;;21.92;17.55;;;;;;;;;;5099320;28;20016;-81
2021/09/13 09:22:37;;;;;;;12.55;5.95;;;;;;;;;;5099012;28;20020;-81
2021/09/13 09:25:06;;;;;;;11.05;5.45;;;;;;;;;;5098901;28;20069;-81
2021/09/13 09:27:32;;;;;;;12.57;4.53;;;;;;;;;;5098682;28;20051;-82
2021/09/13 09:30:10;;;;;;;11.07;4.35;;;;;;;;;;5097818;28;20031;-81
2021/09/13 09:32:37;;;;;;;13.60;4.63;;;;;;;;;;5098807;28;20428;-81
2021/09/13 09:35:15;;;;;;;9.55;3.95;;;;;;;;;;5097623;28;20063;-81
2021/09/13 09:37:42;;;;;;;7.13;4.30;;;;;;;;;;5098612;28;20032;-82
2021/09/13 09:40:09;;;;;;;9.25;4.57;;;;;;;;;;5097564;28;20107;-82
2021/09/13 09:42:39;;;;;;;6.93;4.40;;;;;;;;;;5098789;28;20031;-81
2021/09/13 09:45:17;;;;;;;8.30;4.35;;;;;;;;;;5098521;28;20054;-81
2021/09/13 09:47:43;;;;;;;6.93;4.70;;;;;;;;;;5098578;28;20450;-82
2021/09/13 09:50:09;;;;;;;8.52;4.50;;;;;;;;;;5098597;28;20028;-81
2021/09/13 09:52:37;;;;;;;7.25;4.43;;;;;;;;;;5098602;28;20152;-82
2021/09/13 09:55:16;;;;;;;8.63;5.43;;;;;;;;;;5097315;28;20048;-82
2021/09/13 09:57:43;;;;;;;11.38;4.30;;;;;;;;;;5097202;28;20028;-82
2021/09/13 10:00:26;;;;;;;6.78;3.63;;;;;;;;;;5098508;28;20107;-82
2021/09/13 10:02:55;;;;;;;7.45;4.00;;;;;;;;;;5098424;28;20030;-81
2021/09/13 10:05:22;;;;;;;6.45;4.13;;;;;;;;;;5098119;28;20024;-82
2021/09/13 10:07:49;;;;;;;10.27;6.07;;;;;;;;;;5097223;28;20052;-82
2021/09/13 10:10:15;;;;;;;7.70;4.78;;;;;;;;;;5098064;28;20414;-82
2021/09/13 10:12:41;;;;;;;11.85;5.90;;;;;;;;;;5097998;28;20028;-81
2021/09/13 10:15:08;;;;;;;10.43;5.15;;;;;;;;;;5098122;28;20040;-81
2021/09/13 10:17:34;;;;;;;15.80;4.38;;;;;;;;;;5097801;28;20425;-81
2021/09/13 10:20:04;;;;;;;7.57;4.00;;;;;;;;;;5097885;28;20065;-81
2021/09/13 10:22:31;;;;;;;7.03;4.18;;;;;;;;;;5097920;28;20016;-82
2021/09/13 10:24:58;;;;;;;7.68;3.85;;;;;;;;;;5098070;28;20028;-82
2021/09/13 10:27:25;;;;;;;15.60;4.43;;;;;;;;;;5096968;28;20035;-81
2021/09/13 10:30:10;;;;;;;7.68;5.32;;;;;;;;;;5096832;28;20421;-82
2021/09/13 10:32:36;;;;;;;12.90;8.30;;;;;;;;;;5097666;28;20016;-81
2021/09/13 10:35:02;;;;;;;8.70;4.18;;;;;;;;;;5097677;28;20425;-82
2021/09/13 10:37:38;;;;;;;7.40;3.90;;;;;;;;;;5096569;28;20036;-82
2021/09/13 10:40:32;;;;;;;5.10;3.58;;;;;;;;;;5097702;28;20047;-82
2021/09/13 10:43:18;;;;;;;5.85;3.55;;;;;;;;;;5097553;28;20048;-82
2021/09/13 10:45:44;;;;;;;7.80;4.05;;;;;;;;;;5097466;28;20056;-82
2021/09/13 10:48:20;;;;;;;8.82;3.80;;;;;;;;;;5097306;28;20475;-82
2021/09/13 10:50:57;;;;;;;7.07;3.60;;;;;;;;;;5096752;28;20094;-82
2021/09/13 10:53:24;;;;;;;7.53;3.35;;;;;;;;;;5097442;28;20028;-82
2021/09/13 10:55:51;;;;;;;9.55;4.13;;;;;;;;;;5097245;28;20035;-82
2021/09/13 10:58:19;;;;;;;7.15;3.67;;;;;;;;;;5097252;28;20314;-82
2021/09/13 11:00:45;;;;;;;12.95;3.67;;;;;;;;;;5097538;28;20016;-82
2021/09/13 11:06:08;;;;;;;6.28;3.33;;;;;;;;;;5097393;28;20020;-82
2021/09/13 11:08:34;;;;;;;5.47;3.38;;;;;;;;;;5097259;28;20050;-82
2021/09/13 11:11:00;;;;;;;12.52;5.60;;;;;;;;;;5096123;28;20024;-82
2021/09/13 11:13:26;;;;;;;11.60;6.10;;;;;;;;;;5096190;28;20080;-83
2021/09/13 11:15:53;;;;;;;9.13;4.53;;;;;;;;;;5097239;28;20036;-83
2021/09/13 11:18:32;;;;;;;9.45;3.63;;;;;;;;;;5090761;28;20028;-82
2021/09/13 11:21:21;;;;;;;7.03;3.25;;;;;;;;;;5084192;28;20667;-82
2021/09/13 11:23:48;;;;;;;4.90;3.20;;;;;;;;;;5097522;28;20016;-82
2021/09/13 11:26:27;;;;;;;11.57;4.50;;;;;;;;;;5097195;28;20028;-82
2021/09/13 11:28:55;;;;;;;6.15;3.42;;;;;;;;;;5097210;28;20044;-82
2021/09/13 11:31:25;;;;;;;5.32;3.10;;;;;;;;;;5096195;28;20039;-83
2021/09/13 11:33:51;;;;;;;4.10;2.70;;;;;;;;;;5097048;28;20032;-82
2021/09/13 11:36:24;;;;;;;5.13;3.08;;;;;;;;;;5096731;28;20039;-82
2021/09/13 11:39:02;;;;;;;9.02;3.38;;;;;;;;;;5096908;28;20039;-82
2021/09/13 11:41:31;;;;;;;8.45;3.30;;;;;;;;;;5097013;28;20422;-83
2021/09/13 11:44:07;;;;;;;36.08;29.83;;;;;;;;;;5096902;28;20024;-83
2021/09/13 11:46:50;;;;;;;31.88;18.95;;;;;;;;;;5095953;28;20016;-83
2021/09/13 11:49:17;;;;;;;14.25;9.13;;;;;;;;;;5094862;28;20024;-83
2021/09/13 11:52:04;;;;;;;52.72;38.78;;;;;;;;;;5096961;28;20360;-82
2021/09/13 11:54:32;;;;;;;10.95;6.25;;;;;;;;;;5096820;28;20045;-82
2021/09/13 11:56:58;;;;;;;8.50;3.97;;;;;;;;;;5099199;28;20020;-82
2021/09/13 11:59:27;;;;;;;15.73;10.82;;;;;;;;;;5099401;28;20123;-83
2021/09/13 12:02:02;;;;;;;12.15;6.13;;;;;;;;;;5099622;28;20113;-81
2021/09/13 12:04:28;;;;;;;9.85;3.85;;;;;;;;;;5100920;28;20020;-82
2021/09/13 12:07:08;;;;;;;8.63;3.88;;;;;;;;;;5100622;28;20052;-83
2021/09/13 12:09:35;;;;;;;8.35;3.17;;;;;;;;;;5100383;28;20114;-82
2021/09/13 12:12:01;;;;;;;6.22;3.40;;;;;;;;;;5100296;28;20028;-82
2021/09/13 12:14:28;;;;;;;10.85;3.67;;;;;;;;;;5100424;28;20074;-81
2021/09/13 12:17:08;;;;;;;9.02;4.15;;;;;;;;;;5100318;28;20054;-82
2021/09/13 12:19:35;;;;;;;5.80;3.25;;;;;;;;;;5100273;28;20020;-82
2021/09/13 12:22:01;;;;;;;6.00;3.30;;;;;;;;;;5099186;28;20027;-82
2021/09/13 12:24:27;;;;;;;5.85;3.08;;;;;;;;;;5100230;28;20073;-82
2021/09/13 12:26:53;;;;;;;7.43;3.38;;;;;;;;;;5099377;28;20032;-82
2021/09/13 12:29:19;;;;;;;8.40;3.80;;;;;;;;;;5100206;28;20062;-82
2021/09/13 12:31:46;;;;;;;11.13;3.35;;;;;;;;;;5100230;28;20024;-82
2021/09/13 12:34:12;;;;;;;9.90;3.90;;;;;;;;;;5100013;28;20027;-82
2021/09/13 12:36:38;;;;;;;7.78;3.33;;;;;;;;;;5099153;28;20148;-82
2021/09/13 12:39:07;;;;;;;4.22;2.85;;;;;;;;;;5099066;28;20074;-82
2021/09/13 12:41:34;;;;;;;7.05;3.25;;;;;;;;;;5099933;28;20317;-83
2021/09/13 12:44:12;;;;;;;8.20;3.70;;;;;;;;;;5099910;28;20050;-82
2021/09/13 12:46:48;;;;;;;8.93;3.90;;;;;;;;;;5099815;28;20023;-82
2021/09/13 12:49:14;;;;;;;6.85;3.15;;;;;;;;;;5099673;28;20028;-82
2021/09/13 12:51:40;;;;;;;6.35;3.33;;;;;;;;;;5098856;28;20036;-82
2021/09/13 12:54:09;;;;;;;5.72;3.35;;;;;;;;;;5098919;28;20306;-82
2021/09/13 12:56:45;;;;;;;16.90;3.58;;;;;;;;;;5099547;28;20024;-83
2021/09/13 12:59:18;;;;;;;5.80;3.40;;;;;;;;;;5098297;28;20318;-82
2021/09/13 13:01:45;;;;;;;11.30;3.50;;;;;;;;;;5098554;28;20542;-83
2021/09/13 13:04:12;;;;;;;9.65;3.38;;;;;;;;;;5099419;28;20385;-83
2021/09/13 13:06:39;;;;;;;19.58;3.80;;;;;;;;;;5097549;28;20044;-82
2021/09/13 13:09:07;;;;;;;5.72;3.33;;;;;;;;;;5099461;28;20026;-83
2021/09/13 13:11:33;;;;;;;5.90;3.13;;;;;;;;;;5099193;28;20077;-83
2021/09/13 13:14:00;;;;;;;6.15;3.60;;;;;;;;;;5099291;28;20111;-82
2021/09/13 13:16:44;;;;;;;8.07;3.33;;;;;;;;;;5099320;28;20020;-82
2021/09/13 13:19:15;;;;;;;7.40;3.00;;;;;;;;;;5099805;28;20034;-87
2021/09/13 13:21:43;;;;;;;7.97;3.33;;;;;;;;;;5100520;28;20034;-89
2021/09/13 13:24:12;;;;;;;6.13;3.58;;;;;;;;;;5100128;28;20045;-90
2021/09/13 13:26:39;;;;;;;7.30;2.90;;;;;;;;;;5099628;28;20034;-92
2021/09/13 13:29:06;;;;;;;8.93;3.70;;;;;;;;;;5099270;28;20047;-91
2021/09/13 13:31:32;;;;;;;12.23;3.67;;;;;;;;;;5098208;28;20111;-93
2021/09/13 13:33:58;;;;;;;8.02;3.80;;;;;;;;;;5099406;28;20188;-93
2021/09/13 13:36:24;;;;;;;8.63;3.53;;;;;;;;;;5099761;28;20032;-93
2021/09/13 13:38:51;;;;;;;11.38;3.85;;;;;;;;;;5099391;28;20024;-93
2021/09/13 13:41:17;;;;;;;8.32;3.65;;;;;;;;;;5099267;28;20455;-94
2021/09/13 13:43:43;;;;;;;8.95;3.40;;;;;;;;;;5099360;28;20023;-92
2021/09/13 13:46:10;;;;;;;13.88;3.65;;;;;;;;;;5099508;28;20099;-93
2021/09/13 13:48:36;;;;;;;8.48;3.42;;;;;;;;;;5098565;28;20069;-90
2021/09/13 13:51:02;;;;;;;9.15;3.10;;;;;;;;;;5098432;28;20036;-91
2021/09/13 13:53:29;;;;;;;7.75;3.40;;;;;;;;;;5099120;28;20421;-94
2021/09/13 13:55:55;;;;;;;9.00;3.67;;;;;;;;;;5100299;28;20027;-95
2021/09/13 13:58:21;;;;;;;4.03;3.05;;;;;;;;;;5097805;28;20119;-90
2021/09/13 14:00:50;;;;;;;8.38;3.38;;;;;;;;;;5098818;28;20027;-90
2021/09/13 14:03:17;;;;;;;5.03;3.35;;;;;;;;;;5098181;28;20032;-93
2021/09/13 14:05:43;;;;;;;10.35;3.85;;;;;;;;;;5097829;28;20322;-95
2021/09/13 14:08:12;;;;;;;12.40;3.70;;;;;;;;;;5098852;28;20113;-93
2021/09/13 14:10:38;;;;;;;24.02;9.15;;;;;;;;;;5097815;28;20081;-95
2021/09/13 14:13:05;;;;;;;10.38;4.43;;;;;;;;;;5098500;28;20031;-93
2021/09/13 14:15:31;;;;;;;11.63;3.78;;;;;;;;;;5097701;28;20020;-95
2021/09/13 14:17:59;;;;;;;11.00;3.35;;;;;;;;;;5098498;28;20048;-93
2021/09/13 14:20:25;;;;;;;9.23;3.80;;;;;;;;;;5097431;28;20043;-93
2021/09/13 14:22:52;;;;;;;7.53;3.42;;;;;;;;;;5097545;28;20066;-93
2021/09/13 14:25:18;;;;;;;11.88;3.70;;;;;;;;;;5097161;28;20024;-93
2021/09/13 14:27:44;;;;;;;9.07;3.47;;;;;;;;;;5098452;28;20028;-92
2021/09/13 14:30:10;;;;;;;4.47;3.22;;;;;;;;;;5097625;28;20024;-92
2021/09/13 14:32:36;;;;;;;8.23;3.70;;;;;;;;;;5098213;28;20410;-95
2021/09/13 14:35:02;;;;;;;7.47;3.38;;;;;;;;;;5098418;28;20402;-94
2021/09/13 14:37:28;;;;;;;14.38;4.03;;;;;;;;;;5097376;28;20043;-93